CMA CGM Tosca — FMEL — position and weather

sailwx.info

Track history (hours):
 
Tides and Currents Weather Stations Pressure Air Temp Water Temp Dewpoint Dewpoint Depression Visibility Wind Speed Wind Dir Waves Ship Positions

CMA CGM Tosca

Last reported at 2015-Jul-04 00:24 UTC. Time now 2015-Jul-06 00:54 UTC.
Position N 29°36' E 032°31'.

Length 334 m; draft 14.4 m.

Type: Ship. MMSI: 228335900.

Date/timePositionNaut miles runAvg speedWind from/ knotsBaromVisibWave heightAir tempDewpointWater temp
2015-Jul-04 00:24N 29°36' E 032°31'6210.0
2015-Jul-03 18:10N 30°37' E 032°19'14 8.5
2015-Jul-03 16:31N 30°51' E 032°19'9 8.9
2015-Jul-03 15:33N 30°60' E 032°19'11 9.4
2015-Jul-03 14:24N 31°11' E 032°20'6 7.5
2015-Jul-03 13:33N 31°17' E 032°22'5 0.3
2015-Jul-02 21:24N 31°12' E 032°21'0 0.0
2015-Jul-02 20:21N 31°12' E 032°21'0 0.0
2015-Jul-02 18:27N 31°12' E 032°21'0 0.0
2015-Jul-02 15:24N 31°12' E 032°21'0 0.0
2015-Jul-02 14:21N 31°12' E 032°21'0 0.0
2015-Jul-02 13:27N 31°12' E 032°21'0 0.0
2015-Jul-02 12:33N 31°12' E 032°21'0 0.0
2015-Jul-02 11:33N 31°12' E 032°21'1 1.1
2015-Jul-02 10:33N 31°13' E 032°21'10 8.0
2015-Jul-02 09:20N 31°23' E 032°23'5 6.3
2015-Jul-02 08:32N 31°28' E 032°23'5210.2
2015-Jul-02 03:26N 31°54' E 031°29'1011.9
2015-Jul-02 02:33N 31°58' E 031°18'1312.0
2015-Jul-02 01:31N 32°01' E 031°04'1512.1
2015-Jul-02 00:18N 32°06' E 030°48'911.9
2015-Jul-01 23:33N 32°08' E 030°37'1212.0
2015-Jul-01 22:33N 32°12' E 030°24'1212.0
2015-Jul-01 21:33N 32°16' E 030°11'1211.8
2015-Jul-01 20:33N 32°19' E 029°57'2311.7
2015-Jul-01 18:33N 32°26' E 029°31'1211.7
2015-Jul-01 17:33N 32°30' E 029°18'1211.8
2015-Jul-01 16:33N 32°33' E 029°04'1211.6
2015-Jul-01 15:33N 32°36' E 028°51'1211.7
2015-Jul-01 14:33N 32°40' E 028°38'65813.7
2015-Jun-29 14:25N 36°01' E 015°59'1112.8
2015-Jun-29 13:32N 36°04' E 015°45'2812.9
2015-Jun-29 11:22N 36°13' E 015°12'1113.2
2015-Jun-29 10:33N 36°16' E 014°60'1313.3
2015-Jun-29 09:34N 36°19' E 014°44'1413.7
2015-Jun-29 08:34N 36°24' E 014°28'1413.5
2015-Jun-29 07:33N 36°28' E 014°12'1413.8
2015-Jun-29 06:34N 36°32' E 013°55'1414.3
2015-Jun-29 05:34N 36°37' E 013°38'1414.1
2015-Jun-29 04:34N 36°41' E 013°22'1414.0
2015-Jun-29 03:34N 36°46' E 013°05'1413.9
2015-Jun-29 02:34N 36°50' E 012°49'1413.8
2015-Jun-29 01:34N 36°54' E 012°32'1414.0
2015-Jun-29 00:33N 36°58' E 012°15'1413.8
2015-Jun-28 23:34N 37°02' E 011°59'1414.1
2015-Jun-28 22:33N 37°09' E 011°43'1414.2
2015-Jun-28 21:33N 37°15' E 011°27'1414.2
2015-Jun-28 20:33N 37°21' E 011°11'1514.3
2015-Jun-28 19:31N 37°26' E 010°54'1414.7
2015-Jun-28 18:33N 37°29' E 010°36'1514.6
2015-Jun-28 17:33N 37°33' E 010°18'1414.4
2015-Jun-28 16:33N 37°34' E 010°00'1414.4
2015-Jun-28 15:33N 37°35' E 009°42'1414.4
2015-Jun-28 14:33N 37°38' E 009°24'1414.2
2015-Jun-28 13:33N 37°42' E 009°07'1413.9
2015-Jun-28 12:33N 37°43' E 008°50'1413.9
2015-Jun-28 11:33N 37°41' E 008°32'1413.7
2015-Jun-28 10:33N 37°39' E 008°15'12313.4
2015-Jun-28 01:25N 37°20' E 005°42'1613.5
2015-Jun-28 00:16N 37°18' E 005°23'5514.0
2015-Jun-27 20:19N 37°10' E 004°14'1313.1
2015-Jun-27 19:20N 37°07' E 003°58'1013.1
2015-Jun-27 18:33N 37°06' E 003°45'1313.5
2015-Jun-27 17:33N 37°04' E 003°29'1514.1
2015-Jun-27 16:31N 37°03' E 003°11'1414.1
2015-Jun-27 15:33N 37°00' E 002°54'1413.9
2015-Jun-27 14:33N 36°58' E 002°37'1514.0
2015-Jun-27 13:30N 36°55' E 002°18'1314.2
2015-Jun-27 12:34N 36°53' E 002°02'1414.1
2015-Jun-27 11:34N 36°51' E 001°45'1414.0
2015-Jun-27 10:33N 36°49' E 001°27'1413.7
2015-Jun-27 09:33N 36°47' E 001°10'1413.9
2015-Jun-27 08:33N 36°44' E 000°53'1313.1
2015-Jun-27 07:33N 36°43' E 000°37'2019.9
2015-Jun-27 06:33N 36°40' E 000°12'1514.7
2015-Jun-27 05:33N 36°38' W 000°06'1313.3
2015-Jun-27 04:33N 36°36' W 000°22'1413.7
2015-Jun-27 03:33N 36°33' W 000°39'1413.9
2015-Jun-27 02:33N 36°31' W 000°56'1413.7
2015-Jun-27 01:33N 36°29' W 001°13'1413.8
2015-Jun-27 00:34N 36°27' W 001°30'1413.8
2015-Jun-26 23:33N 36°25' W 001°47'1413.6
2015-Jun-26 22:33N 36°23' W 002°04'1413.6
2015-Jun-26 21:33N 36°21' W 002°20'1413.5
2015-Jun-26 20:33N 36°19' W 002°37'1413.9
2015-Jun-26 19:33N 36°17' W 002°54'1414.0
2015-Jun-26 18:33N 36°16' W 003°11'1414.3
2015-Jun-26 17:33N 36°13' W 003°29'1814.7
2015-Jun-26 16:19N 36°11' W 003°51'6914.5
2015-Jun-26 11:34N 35°60' W 005°15'14012.8
2015-Jun-26 00:33N 36°19' W 008°08'1414.0
2015-Jun-25 23:33N 36°22' W 008°24'1413.9
2015-Jun-25 22:33N 36°26' W 008°41'1413.7
2015-Jun-25 21:33N 36°29' W 008°57'1413.6
2015-Jun-25 20:33N 36°33' W 009°14'1313.2
2015-Jun-25 19:33N 36°42' W 009°26'1313.3
2015-Jun-25 18:33N 36°53' W 009°35'1414.0
2015-Jun-25 17:33N 37°07' W 009°38'1414.3
2015-Jun-25 16:33N 37°21' W 009°43'1414.2
2015-Jun-25 15:33N 37°34' W 009°47'1414.0
2015-Jun-25 14:33N 37°48' W 009°51'1414.2
2015-Jun-25 13:33N 38°02' W 009°55'1414.3
2015-Jun-25 12:33N 38°16' W 009°59'1414.1
2015-Jun-25 11:33N 38°29' W 010°03'1413.8
2015-Jun-25 10:33N 38°43' W 010°07'1414.0
2015-Jun-25 09:33N 38°57' W 010°07'1413.8
2015-Jun-25 08:33N 39°11' W 010°06'1413.9
2015-Jun-25 07:34N 39°25' W 010°06'1414.0
2015-Jun-25 06:33N 39°39' W 010°06'1413.9
2015-Jun-25 05:33N 39°53' W 010°06'1414.4
2015-Jun-25 04:33N 40°07' W 010°07'1514.4
2015-Jun-25 03:33N 40°21' W 010°07'1414.1
2015-Jun-25 02:33N 40°35' W 010°07'  
Track history (hours):
 
Tides and Currents Weather Stations Pressure Air Temp Water Temp Dewpoint Dewpoint Depression Visibility Wind Speed Wind Dir Waves Ship Positions

CMA CGM Tosca

Last reported at 2015-Jul-04 00:24 UTC. Time now 2015-Jul-06 00:54 UTC.
Position N 29°36' E 032°31'.

Length 334 m; draft 14.4 m.

Type: Ship. MMSI: 228335900.

Date/timePositionNaut miles runAvg speedWind from/ knotsBaromVisibWave heightAir tempDewpointWater temp
2015-Jul-04 00:24N 29°36' E 032°31'6210.0
2015-Jul-03 18:10N 30°37' E 032°19'14 8.5
2015-Jul-03 16:31N 30°51' E 032°19'9 8.9
2015-Jul-03 15:33N 30°60' E 032°19'11 9.4
2015-Jul-03 14:24N 31°11' E 032°20'6 7.5
2015-Jul-03 13:33N 31°17' E 032°22'5 0.3
2015-Jul-02 21:24N 31°12' E 032°21'0 0.0
2015-Jul-02 20:21N 31°12' E 032°21'0 0.0
2015-Jul-02 18:27N 31°12' E 032°21'0 0.0
2015-Jul-02 15:24N 31°12' E 032°21'0 0.0
2015-Jul-02 14:21N 31°12' E 032°21'0 0.0
2015-Jul-02 13:27N 31°12' E 032°21'0 0.0
2015-Jul-02 12:33N 31°12' E 032°21'0 0.0
2015-Jul-02 11:33N 31°12' E 032°21'1 1.1
2015-Jul-02 10:33N 31°13' E 032°21'10 8.0
2015-Jul-02 09:20N 31°23' E 032°23'5 6.3
2015-Jul-02 08:32N 31°28' E 032°23'5210.2
2015-Jul-02 03:26N 31°54' E 031°29'1011.9
2015-Jul-02 02:33N 31°58' E 031°18'1312.0
2015-Jul-02 01:31N 32°01' E 031°04'1512.1
2015-Jul-02 00:18N 32°06' E 030°48'911.9
2015-Jul-01 23:33N 32°08' E 030°37'1212.0
2015-Jul-01 22:33N 32°12' E 030°24'1212.0
2015-Jul-01 21:33N 32°16' E 030°11'1211.8
2015-Jul-01 20:33N 32°19' E 029°57'2311.7
2015-Jul-01 18:33N 32°26' E 029°31'1211.7
2015-Jul-01 17:33N 32°30' E 029°18'1211.8
2015-Jul-01 16:33N 32°33' E 029°04'1211.6
2015-Jul-01 15:33N 32°36' E 028°51'1211.7
2015-Jul-01 14:33N 32°40' E 028°38'65813.7
2015-Jun-29 14:25N 36°01' E 015°59'1112.8
2015-Jun-29 13:32N 36°04' E 015°45'2812.9
2015-Jun-29 11:22N 36°13' E 015°12'1113.2
2015-Jun-29 10:33N 36°16' E 014°60'1313.3
2015-Jun-29 09:34N 36°19' E 014°44'1413.7
2015-Jun-29 08:34N 36°24' E 014°28'1413.5
2015-Jun-29 07:33N 36°28' E 014°12'1413.8
2015-Jun-29 06:34N 36°32' E 013°55'1414.3
2015-Jun-29 05:34N 36°37' E 013°38'1414.1
2015-Jun-29 04:34N 36°41' E 013°22'1414.0
2015-Jun-29 03:34N 36°46' E 013°05'1413.9
2015-Jun-29 02:34N 36°50' E 012°49'1413.8
2015-Jun-29 01:34N 36°54' E 012°32'1414.0
2015-Jun-29 00:33N 36°58' E 012°15'1413.8
2015-Jun-28 23:34N 37°02' E 011°59'1414.1
2015-Jun-28 22:33N 37°09' E 011°43'1414.2
2015-Jun-28 21:33N 37°15' E 011°27'1414.2
2015-Jun-28 20:33N 37°21' E 011°11'1514.3
2015-Jun-28 19:31N 37°26' E 010°54'1414.7
2015-Jun-28 18:33N 37°29' E 010°36'1514.6
2015-Jun-28 17:33N 37°33' E 010°18'1414.4
2015-Jun-28 16:33N 37°34' E 010°00'1414.4
2015-Jun-28 15:33N 37°35' E 009°42'1414.4
2015-Jun-28 14:33N 37°38' E 009°24'1414.2
2015-Jun-28 13:33N 37°42' E 009°07'1413.9
2015-Jun-28 12:33N 37°43' E 008°50'1413.9
2015-Jun-28 11:33N 37°41' E 008°32'1413.7
2015-Jun-28 10:33N 37°39' E 008°15'12313.4
2015-Jun-28 01:25N 37°20' E 005°42'1613.5
2015-Jun-28 00:16N 37°18' E 005°23'5514.0
2015-Jun-27 20:19N 37°10' E 004°14'1313.1
2015-Jun-27 19:20N 37°07' E 003°58'1013.1
2015-Jun-27 18:33N 37°06' E 003°45'1313.5
2015-Jun-27 17:33N 37°04' E 003°29'1514.1
2015-Jun-27 16:31N 37°03' E 003°11'1414.1
2015-Jun-27 15:33N 37°00' E 002°54'1413.9
2015-Jun-27 14:33N 36°58' E 002°37'1514.0
2015-Jun-27 13:30N 36°55' E 002°18'1314.2
2015-Jun-27 12:34N 36°53' E 002°02'1414.1
2015-Jun-27 11:34N 36°51' E 001°45'1414.0
2015-Jun-27 10:33N 36°49' E 001°27'1413.7
2015-Jun-27 09:33N 36°47' E 001°10'1413.9
2015-Jun-27 08:33N 36°44' E 000°53'1313.1
2015-Jun-27 07:33N 36°43' E 000°37'2019.9
2015-Jun-27 06:33N 36°40' E 000°12'1514.7
2015-Jun-27 05:33N 36°38' W 000°06'1313.3
2015-Jun-27 04:33N 36°36' W 000°22'1413.7
2015-Jun-27 03:33N 36°33' W 000°39'1413.9
2015-Jun-27 02:33N 36°31' W 000°56'1413.7
2015-Jun-27 01:33N 36°29' W 001°13'1413.8
2015-Jun-27 00:34N 36°27' W 001°30'1413.8
2015-Jun-26 23:33N 36°25' W 001°47'1413.6
2015-Jun-26 22:33N 36°23' W 002°04'1413.6
2015-Jun-26 21:33N 36°21' W 002°20'1413.5
2015-Jun-26 20:33N 36°19' W 002°37'1413.9
2015-Jun-26 19:33N 36°17' W 002°54'1414.0
2015-Jun-26 18:33N 36°16' W 003°11'1414.3
2015-Jun-26 17:33N 36°13' W 003°29'1814.7
2015-Jun-26 16:19N 36°11' W 003°51'6914.5
2015-Jun-26 11:34N 35°60' W 005°15'14012.8
2015-Jun-26 00:33N 36°19' W 008°08'1414.0
2015-Jun-25 23:33N 36°22' W 008°24'1413.9
2015-Jun-25 22:33N 36°26' W 008°41'1413.7
2015-Jun-25 21:33N 36°29' W 008°57'1413.6
2015-Jun-25 20:33N 36°33' W 009°14'1313.2
2015-Jun-25 19:33N 36°42' W 009°26'1313.3
2015-Jun-25 18:33N 36°53' W 009°35'1414.0
2015-Jun-25 17:33N 37°07' W 009°38'1414.3
2015-Jun-25 16:33N 37°21' W 009°43'1414.2
2015-Jun-25 15:33N 37°34' W 009°47'1414.0
2015-Jun-25 14:33N 37°48' W 009°51'1414.2
2015-Jun-25 13:33N 38°02' W 009°55'1414.3
2015-Jun-25 12:33N 38°16' W 009°59'1414.1
2015-Jun-25 11:33N 38°29' W 010°03'1413.8
2015-Jun-25 10:33N 38°43' W 010°07'1414.0
2015-Jun-25 09:33N 38°57' W 010°07'1413.8
2015-Jun-25 08:33N 39°11' W 010°06'1413.9
2015-Jun-25 07:34N 39°25' W 010°06'1414.0
2015-Jun-25 06:33N 39°39' W 010°06'1413.9
2015-Jun-25 05:33N 39°53' W 010°06'1414.4
2015-Jun-25 04:33N 40°07' W 010°07'1514.4
2015-Jun-25 03:33N 40°21' W 010°07'1414.1
2015-Jun-25 02:33N 40°35' W 010°07'  

Dump ship's entire track history